Bradner, Ohio
Current Conditions -  °F | °C
As of 9:53 AM on Friday 24 Oct 2014 (Local Time) from KTDZ Reporting Station
Haze Haze  
Wind Chill: 43°   Ceiling: Unl
Heat Index: 46°   Visibility: 6mi
Dew Point: 40°   Wind: 6mph
Humidity: 79%   Direction: 230°SW
Pressure: 30.11"   Gusts: NA
Location:  41.32°N, 83.44°W
Report Text: KTDZ 241353Z AUTO 23005KT 6SM HZ CLR 08/04 A3011 RMK AO2 SLP198 T00780044 TSNO
Loading
Personal Weather Stations






























Interactive Weather Map
Tropical Storm Tracking
New forecast layout! Learn more

10-Day Weather Forecast

Advertisements
Track Severe Weather on mobile